Airport Name : Brac

Other Name : Brac

ICAO : LDSB

IATA : BWK

FAA :

Latitude : 43.285719

Longitude : 16.679719

Country : Croatia

Local Date and Time : 7/18/2018 11:40:00 PM

 

TAF (Terminal Aerodrome Forecast)

 

METAR (METeorological Aerodrome Report)

LDSB 181800Z 30010KT 300V360 9999 FEW055 25/13 Q1014